sensor_id;sensor_type;location;lat;lon;timestamp;pressure;altitude;pressure_sealevel;temperature;humidity
78675;BME280;67990;59.826;30.108;2023-04-24T00:00:28;100723.84;;;12.55;49.50
78675;BME280;67990;59.826;30.108;2023-04-24T00:05:59;100710.09;;;12.61;49.32
78675;BME280;67990;59.826;30.108;2023-04-24T00:08:45;100715.22;;;12.63;49.28
78675;BME280;67990;59.826;30.108;2023-04-24T00:11:31;100715.38;;;12.61;49.40
78675;BME280;67990;59.826;30.108;2023-04-24T00:13:58;100708.41;;;12.60;49.44
78675;BME280;67990;59.826;30.108;2023-04-24T00:16:43;100712.41;;;12.64;49.55
78675;BME280;67990;59.826;30.108;2023-04-24T00:19:12;100707.69;;;12.68;49.53
78675;BME280;67990;59.826;30.108;2023-04-24T00:21:39;100714.47;;;12.70;49.62
78675;BME280;67990;59.826;30.108;2023-04-24T00:24:25;100702.28;;;12.69;49.53
78675;BME280;67990;59.826;30.108;2023-04-24T00:26:52;100708.50;;;12.68;49.75
78675;BME280;67990;59.826;30.108;2023-04-24T00:32:04;100704.25;;;12.58;50.00
78675;BME280;67990;59.826;30.108;2023-04-24T00:34:33;100705.53;;;12.54;50.05
78675;BME280;67990;59.826;30.108;2023-04-24T00:37:01;100700.25;;;12.54;49.90
78675;BME280;67990;59.826;30.108;2023-04-24T00:39:28;100696.44;;;12.48;50.10
78675;BME280;67990;59.826;30.108;2023-04-24T00:42:13;100692.13;;;12.47;50.37
78675;BME280;67990;59.826;30.108;2023-04-24T00:45:17;100691.84;;;12.50;50.23
78675;BME280;67990;59.826;30.108;2023-04-24T00:47:45;100690.47;;;12.46;50.36
78675;BME280;67990;59.826;30.108;2023-04-24T00:50:15;100692.72;;;12.41;50.61
78675;BME280;67990;59.826;30.108;2023-04-24T00:53:01;100685.50;;;12.43;50.33
78675;BME280;67990;59.826;30.108;2023-04-24T00:55:28;100689.25;;;12.41;50.35
78675;BME280;67990;59.826;30.108;2023-04-24T00:57:55;100679.84;;;12.38;50.53
78675;BME280;67990;59.826;30.108;2023-04-24T01:00:23;100685.50;;;12.43;50.77
78675;BME280;67990;59.826;30.108;2023-04-24T01:02:51;100681.34;;;12.41;50.69
78675;BME280;67990;59.826;30.108;2023-04-24T01:05:39;100684.13;;;12.39;50.81
78675;BME280;67990;59.826;30.108;2023-04-24T01:08:06;100684.06;;;12.49;50.34
78675;BME280;67990;59.826;30.108;2023-04-24T01:10:36;100684.78;;;12.51;50.60
78675;BME280;67990;59.826;30.108;2023-04-24T01:13:05;100681.97;;;12.52;50.46
78675;BME280;67990;59.826;30.108;2023-04-24T01:15:50;100684.03;;;12.58;50.32
78675;BME280;67990;59.826;30.108;2023-04-24T01:18:17;100677.47;;;12.62;50.49
78675;BME280;67990;59.826;30.108;2023-04-24T01:23:51;100678.47;;;12.61;50.65
78675;BME280;67990;59.826;30.108;2023-04-24T01:26:54;100671.16;;;12.73;50.19
78675;BME280;67990;59.826;30.108;2023-04-24T01:29:22;100673.09;;;12.71;50.13
78675;BME280;67990;59.826;30.108;2023-04-24T01:34:36;100663.13;;;12.74;50.25
78675;BME280;67990;59.826;30.108;2023-04-24T01:37:04;100656.41;;;12.80;50.18
78675;BME280;67990;59.826;30.108;2023-04-24T01:39:33;100657.22;;;12.80;50.11
78675;BME280;67990;59.826;30.108;2023-04-24T01:42:00;100651.13;;;12.80;50.45
78675;BME280;67990;59.826;30.108;2023-04-24T01:44:28;100652.19;;;12.87;49.96
78675;BME280;67990;59.826;30.108;2023-04-24T01:46:55;100645.63;;;12.91;49.93
78675;BME280;67990;59.826;30.108;2023-04-24T01:49:41;100661.16;;;12.94;49.87
78675;BME280;67990;59.826;30.108;2023-04-24T01:52:08;100658.16;;;12.89;50.10
78675;BME280;67990;59.826;30.108;2023-04-24T01:54:37;100645.25;;;12.86;50.32
78675;BME280;67990;59.826;30.108;2023-04-24T01:57:04;100649.88;;;12.84;50.25
78675;BME280;67990;59.826;30.108;2023-04-24T01:59:33;100639.75;;;12.79;50.20
78675;BME280;67990;59.826;30.108;2023-04-24T02:02:00;100656.19;;;12.73;50.53
78675;BME280;67990;59.826;30.108;2023-04-24T02:04:27;100649.84;;;12.66;50.65
78675;BME280;67990;59.826;30.108;2023-04-24T02:06:54;100647.34;;;12.65;50.77
78675;BME280;67990;59.826;30.108;2023-04-24T02:09:21;100647.66;;;12.62;50.66
78675;BME280;67990;59.826;30.108;2023-04-24T02:11:51;100646.69;;;12.63;50.61
78675;BME280;67990;59.826;30.108;2023-04-24T02:17:22;100649.75;;;12.58;50.88
78675;BME280;67990;59.826;30.108;2023-04-24T02:19:49;100649.06;;;12.56;50.64
78675;BME280;67990;59.826;30.108;2023-04-24T02:22:35;100645.47;;;12.57;50.72
78675;BME280;67990;59.826;30.108;2023-04-24T02:25:21;100644.53;;;12.49;51.20
78675;BME280;67990;59.826;30.108;2023-04-24T02:27:49;100649.97;;;12.47;51.24
78675;BME280;67990;59.826;30.108;2023-04-24T02:30:17;100648.03;;;12.49;50.97
78675;BME280;67990;59.826;30.108;2023-04-24T02:32:44;100642.94;;;12.38;51.47
78675;BME280;67990;59.826;30.108;2023-04-24T02:35:11;100639.47;;;12.38;51.63
78675;BME280;67990;59.826;30.108;2023-04-24T02:37:57;100638.66;;;12.37;51.59
78675;BME280;67990;59.826;30.108;2023-04-24T02:40:43;100630.47;;;12.40;51.42
78675;BME280;67990;59.826;30.108;2023-04-24T02:45:57;100627.53;;;12.43;50.97
78675;BME280;67990;59.826;30.108;2023-04-24T02:48:24;100628.88;;;12.47;51.06
78675;BME280;67990;59.826;30.108;2023-04-24T02:50:52;100634.38;;;12.54;51.31
78675;BME280;67990;59.826;30.108;2023-04-24T02:53:19;100629.06;;;12.63;51.11
78675;BME280;67990;59.826;30.108;2023-04-24T02:58:33;100625.13;;;12.67;50.81
78675;BME280;67990;59.826;30.108;2023-04-24T03:01:01;100620.63;;;12.77;50.63
78675;BME280;67990;59.826;30.108;2023-04-24T03:03:28;100627.72;;;12.94;49.93
78675;BME280;67990;59.826;30.108;2023-04-24T03:05:55;100622.91;;;13.07;49.96
78675;BME280;67990;59.826;30.108;2023-04-24T03:08:22;100620.31;;;13.15;49.64
78675;BME280;67990;59.826;30.108;2023-04-24T03:11:08;100622.69;;;13.26;49.46
78675;BME280;67990;59.826;30.108;2023-04-24T03:16:58;100621.09;;;13.33;49.34
78675;BME280;67990;59.826;30.108;2023-04-24T03:19:44;100626.59;;;13.40;49.01
78675;BME280;67990;59.826;30.108;2023-04-24T03:22:12;100620.53;;;13.47;48.79
78675;BME280;67990;59.826;30.108;2023-04-24T03:24:58;100619.63;;;13.56;48.60
78675;BME280;67990;59.826;30.108;2023-04-24T03:30:32;100618.00;;;13.63;48.45
78675;BME280;67990;59.826;30.108;2023-04-24T03:33:00;100615.50;;;13.62;48.43
78675;BME280;67990;59.826;30.108;2023-04-24T03:36:12;100611.13;;;13.70;47.87
78675;BME280;67990;59.826;30.108;2023-04-24T03:38:40;100611.00;;;13.80;47.83
78675;BME280;67990;59.826;30.108;2023-04-24T03:41:26;100618.44;;;13.84;47.92
78675;BME280;67990;59.826;30.108;2023-04-24T03:44:06;100615.38;;;13.97;47.40
78675;BME280;67990;59.826;30.108;2023-04-24T03:49:39;100610.50;;;15.39;44.00
78675;BME280;67990;59.826;30.108;2023-04-24T03:52:26;100617.94;;;15.52;43.42
78675;BME280;67990;59.826;30.108;2023-04-24T03:54:53;100617.56;;;16.79;41.39
78675;BME280;67990;59.826;30.108;2023-04-24T03:57:21;100607.25;;;17.87;38.17
78675;BME280;67990;59.826;30.108;2023-04-24T04:00:10;100607.53;;;18.56;36.94
78675;BME280;67990;59.826;30.108;2023-04-24T04:02:40;100604.38;;;18.88;35.56
78675;BME280;67990;59.826;30.108;2023-04-24T04:05:11;100606.31;;;19.22;35.25
78675;BME280;67990;59.826;30.108;2023-04-24T04:07:56;100613.09;;;19.79;34.16
78675;BME280;67990;59.826;30.108;2023-04-24T04:10:24;100601.50;;;20.40;32.58
78675;BME280;67990;59.826;30.108;2023-04-24T04:12:50;100603.50;;;20.92;31.66
78675;BME280;67990;59.826;30.108;2023-04-24T04:15:37;100601.44;;;21.33;31.55
78675;BME280;67990;59.826;30.108;2023-04-24T04:20:51;100611.13;;;20.35;32.51
78675;BME280;67990;59.826;30.108;2023-04-24T04:23:18;100600.31;;;19.68;33.23
78675;BME280;67990;59.826;30.108;2023-04-24T04:26:04;100601.00;;;19.22;34.25
78675;BME280;67990;59.826;30.108;2023-04-24T04:31:40;100606.88;;;19.72;34.28
78675;BME280;67990;59.826;30.108;2023-04-24T04:34:10;100607.34;;;20.83;32.21
78675;BME280;67990;59.826;30.108;2023-04-24T04:36:59;100593.19;;;21.34;30.71
78675;BME280;67990;59.826;30.108;2023-04-24T04:39:48;100598.00;;;22.09;29.49
78675;BME280;67990;59.826;30.108;2023-04-24T04:42:19;100599.44;;;22.62;28.33
78675;BME280;67990;59.826;30.108;2023-04-24T04:45:06;100592.44;;;23.41;27.67
78675;BME280;67990;59.826;30.108;2023-04-24T04:47:46;100592.16;;;23.92;26.61
78675;BME280;67990;59.826;30.108;2023-04-24T04:53:06;100589.09;;;24.54;25.75
78675;BME280;67990;59.826;30.108;2023-04-24T04:55:37;100585.81;;;24.81;25.29
78675;BME280;67990;59.826;30.108;2023-04-24T04:58:09;100587.13;;;25.02;25.00
78675;BME280;67990;59.826;30.108;2023-04-24T05:03:30;100592.53;;;25.13;24.60
78675;BME280;67990;59.826;30.108;2023-04-24T05:06:25;100586.91;;;26.47;23.83
78675;BME280;67990;59.826;30.108;2023-04-24T05:08:55;100590.28;;;26.98;22.67
78675;BME280;67990;59.826;30.108;2023-04-24T05:11:33;100582.72;;;26.39;22.68
78675;BME280;67990;59.826;30.108;2023-04-24T05:14:18;100588.63;;;26.25;22.82
78675;BME280;67990;59.826;30.108;2023-04-24T05:17:03;100588.50;;;26.59;22.50
78675;BME280;67990;59.826;30.108;2023-04-24T05:19:32;100582.50;;;27.02;21.77
78675;BME280;67990;59.826;30.108;2023-04-24T05:22:16;100581.91;;;27.82;21.56
78675;BME280;67990;59.826;30.108;2023-04-24T05:24:51;100580.72;;;27.24;21.40
78675;BME280;67990;59.826;30.108;2023-04-24T05:27:34;100577.19;;;27.94;20.78
78675;BME280;67990;59.826;30.108;2023-04-24T05:30:06;100570.34;;;27.32;21.29
78675;BME280;67990;59.826;30.108;2023-04-24T05:35:19;100561.00;;;27.56;20.93
78675;BME280;67990;59.826;30.108;2023-04-24T05:37:46;100561.34;;;27.27;21.08
78675;BME280;67990;59.826;30.108;2023-04-24T05:40:15;100563.16;;;27.38;20.78
78675;BME280;67990;59.826;30.108;2023-04-24T05:42:42;100556.22;;;28.01;20.48
78675;BME280;67990;59.826;30.108;2023-04-24T05:45:09;100567.16;;;28.59;19.70
78675;BME280;67990;59.826;30.108;2023-04-24T05:47:42;100559.56;;;28.35;19.62
78675;BME280;67990;59.826;30.108;2023-04-24T05:50:28;100556.25;;;28.28;19.37
78675;BME280;67990;59.826;30.108;2023-04-24T05:53:31;100556.22;;;28.49;19.64
78675;BME280;67990;59.826;30.108;2023-04-24T05:56:00;100555.78;;;28.89;19.02
78675;BME280;67990;59.826;30.108;2023-04-24T05:58:28;100561.69;;;29.49;18.97
78675;BME280;67990;59.826;30.108;2023-04-24T06:00:55;100555.28;;;28.39;19.55
78675;BME280;67990;59.826;30.108;2023-04-24T06:03:42;100552.28;;;28.88;19.10
78675;BME280;67990;59.826;30.108;2023-04-24T06:06:09;100551.59;;;28.23;19.63
78675;BME280;67990;59.826;30.108;2023-04-24T06:08:55;100549.16;;;29.01;18.79
78675;BME280;67990;59.826;30.108;2023-04-24T06:11:26;100548.25;;;28.91;19.44
78675;BME280;67990;59.826;30.108;2023-04-24T06:14:12;100540.16;;;28.96;18.72
78675;BME280;67990;59.826;30.108;2023-04-24T06:17:15;100547.78;;;29.35;18.63
78675;BME280;67990;59.826;30.108;2023-04-24T06:19:43;100543.91;;;29.21;18.32
78675;BME280;67990;59.826;30.108;2023-04-24T06:22:10;100538.81;;;28.67;18.81
78675;BME280;67990;59.826;30.108;2023-04-24T06:24:37;100540.28;;;29.52;18.49
78675;BME280;67990;59.826;30.108;2023-04-24T06:27:05;100539.13;;;29.38;17.88
78675;BME280;67990;59.826;30.108;2023-04-24T06:29:51;100543.16;;;30.49;17.73
78675;BME280;67990;59.826;30.108;2023-04-24T06:32:21;100535.00;;;30.34;16.77
78675;BME280;67990;59.826;30.108;2023-04-24T06:35:07;100533.47;;;29.86;17.87
78675;BME280;67990;59.826;30.108;2023-04-24T06:37:53;100538.78;;;29.25;18.30
78675;BME280;67990;59.826;30.108;2023-04-24T06:40:21;100533.00;;;29.53;17.68
78675;BME280;67990;59.826;30.108;2023-04-24T06:42:50;100531.50;;;30.64;17.54
78675;BME280;67990;59.826;30.108;2023-04-24T06:45:17;100526.38;;;31.17;16.92
78675;BME280;67990;59.826;30.108;2023-04-24T06:47:44;100519.00;;;31.38;16.49
78675;BME280;67990;59.826;30.108;2023-04-24T06:50:29;100525.25;;;30.48;16.69
78675;BME280;67990;59.826;30.108;2023-04-24T06:52:56;100519.28;;;30.56;16.64
78675;BME280;67990;59.826;30.108;2023-04-24T06:55:41;100524.19;;;30.64;16.44
78675;BME280;67990;59.826;30.108;2023-04-24T06:58:10;100514.94;;;30.65;16.01
78675;BME280;67990;59.826;30.108;2023-04-24T07:03:23;100523.63;;;30.42;17.07
78675;BME280;67990;59.826;30.108;2023-04-24T07:05:49;100520.84;;;30.17;16.85
78675;BME280;67990;59.826;30.108;2023-04-24T07:08:17;100515.38;;;30.07;16.59
78675;BME280;67990;59.826;30.108;2023-04-24T07:11:02;100518.09;;;30.12;16.67
78675;BME280;67990;59.826;30.108;2023-04-24T07:13:31;100524.63;;;30.16;17.23
78675;BME280;67990;59.826;30.108;2023-04-24T07:16:16;100513.19;;;30.04;16.78
78675;BME280;67990;59.826;30.108;2023-04-24T07:26:59;100507.91;;;29.62;17.02
78675;BME280;67990;59.826;30.108;2023-04-24T07:32:14;100511.63;;;29.10;17.46
78675;BME280;67990;59.826;30.108;2023-04-24T07:35:00;100516.72;;;29.48;17.48
78675;BME280;67990;59.826;30.108;2023-04-24T07:37:27;100519.91;;;29.86;17.51
78675;BME280;67990;59.826;30.108;2023-04-24T07:40:12;100526.66;;;29.79;17.16
78675;BME280;67990;59.826;30.108;2023-04-24T07:42:58;100528.78;;;28.94;17.90
78675;BME280;67990;59.826;30.108;2023-04-24T07:45:27;100524.28;;;30.02;17.10
78675;BME280;67990;59.826;30.108;2023-04-24T07:47:54;100522.56;;;30.68;16.69
78675;BME280;67990;59.826;30.108;2023-04-24T07:50:21;100527.66;;;30.30;17.38
78675;BME280;67990;59.826;30.108;2023-04-24T07:52:49;100523.94;;;30.71;15.80
78675;BME280;67990;59.826;30.108;2023-04-24T07:58:01;100506.78;;;30.50;16.92
78675;BME280;67990;59.826;30.108;2023-04-24T08:00:48;100513.75;;;30.06;16.80
78675;BME280;67990;59.826;30.108;2023-04-24T08:03:15;100521.41;;;30.24;16.95
78675;BME280;67990;59.826;30.108;2023-04-24T08:08:49;100512.22;;;28.85;17.83
78675;BME280;67990;59.826;30.108;2023-04-24T08:11:17;100519.19;;;29.49;17.19
78675;BME280;67990;59.826;30.108;2023-04-24T08:13:44;100512.94;;;29.49;17.60
78675;BME280;67990;59.826;30.108;2023-04-24T08:16:12;100515.50;;;30.42;16.88
78675;BME280;67990;59.826;30.108;2023-04-24T08:21:43;100513.00;;;29.59;17.04
78675;BME280;67990;59.826;30.108;2023-04-24T08:29:58;100507.59;;;29.12;17.11
78675;BME280;67990;59.826;30.108;2023-04-24T08:32:27;100515.09;;;29.47;16.58
78675;BME280;67990;59.826;30.108;2023-04-24T08:35:30;100514.31;;;29.56;17.50
78675;BME280;67990;59.826;30.108;2023-04-24T08:37:58;100510.13;;;29.80;17.13
78675;BME280;67990;59.826;30.108;2023-04-24T08:40:28;100522.16;;;30.09;17.11
78675;BME280;67990;59.826;30.108;2023-04-24T08:42:56;100506.38;;;29.86;15.75
78675;BME280;67990;59.826;30.108;2023-04-24T08:45:23;100497.78;;;29.06;16.92
78675;BME280;67990;59.826;30.108;2023-04-24T08:47:53;100511.34;;;28.48;17.74
78675;BME280;67990;59.826;30.108;2023-04-24T08:50:39;100502.56;;;28.63;17.47
78675;BME280;67990;59.826;30.108;2023-04-24T08:53:08;100509.75;;;28.84;17.37
78675;BME280;67990;59.826;30.108;2023-04-24T08:55:35;100511.94;;;28.87;17.89
78675;BME280;67990;59.826;30.108;2023-04-24T08:58:04;100502.84;;;29.39;17.80
78675;BME280;67990;59.826;30.108;2023-04-24T09:00:31;100513.34;;;29.72;16.25
78675;BME280;67990;59.826;30.108;2023-04-24T09:03:00;100501.72;;;29.30;17.52
78675;BME280;67990;59.826;30.108;2023-04-24T09:05:28;100503.38;;;29.83;17.18
78675;BME280;67990;59.826;30.108;2023-04-24T09:07:56;100494.47;;;30.02;16.79
78675;BME280;67990;59.826;30.108;2023-04-24T09:10:25;100489.28;;;29.76;16.63
78675;BME280;67990;59.826;30.108;2023-04-24T09:12:54;100500.63;;;28.90;18.30
78675;BME280;67990;59.826;30.108;2023-04-24T09:15:24;100502.66;;;28.73;17.79
78675;BME280;67990;59.826;30.108;2023-04-24T09:17:52;100493.75;;;27.98;18.29
78675;BME280;67990;59.826;30.108;2023-04-24T09:23:06;100491.50;;;27.68;18.63
78675;BME280;67990;59.826;30.108;2023-04-24T09:25:55;100495.59;;;27.71;19.29
78675;BME280;67990;59.826;30.108;2023-04-24T09:28:26;100491.44;;;28.33;19.01
78675;BME280;67990;59.826;30.108;2023-04-24T09:31:13;100489.56;;;28.07;18.94
78675;BME280;67990;59.826;30.108;2023-04-24T09:34:00;100474.78;;;28.41;18.45
78675;BME280;67990;59.826;30.108;2023-04-24T09:36:32;100482.13;;;28.77;17.60
78675;BME280;67990;59.826;30.108;2023-04-24T09:39:01;100479.13;;;27.72;18.44
78675;BME280;67990;59.826;30.108;2023-04-24T09:41:49;100491.16;;;27.65;18.69
78675;BME280;67990;59.826;30.108;2023-04-24T09:44:18;100487.34;;;27.39;18.96
78675;BME280;67990;59.826;30.108;2023-04-24T09:49:48;100484.97;;;27.64;18.99
78675;BME280;67990;59.826;30.108;2023-04-24T09:52:16;100488.50;;;27.86;19.76
78675;BME280;67990;59.826;30.108;2023-04-24T09:55:01;100485.91;;;28.23;18.59
78675;BME280;67990;59.826;30.108;2023-04-24T09:57:28;100488.69;;;28.01;18.95
78675;BME280;67990;59.826;30.108;2023-04-24T09:59:57;100492.81;;;27.87;20.39
78675;BME280;67990;59.826;30.108;2023-04-24T10:02:24;100495.63;;;28.19;19.29
78675;BME280;67990;59.826;30.108;2023-04-24T10:08:04;100498.38;;;27.38;18.99
78675;BME280;67990;59.826;30.108;2023-04-24T10:10:33;100497.34;;;27.06;19.41
78675;BME280;67990;59.826;30.108;2023-04-24T10:13:00;100496.28;;;26.74;19.89
78675;BME280;67990;59.826;30.108;2023-04-24T10:18:13;100505.78;;;27.26;20.42
78675;BME280;67990;59.826;30.108;2023-04-24T10:20:42;100493.81;;;26.56;20.08
78675;BME280;67990;59.826;30.108;2023-04-24T10:23:10;100488.75;;;26.15;20.24
78675;BME280;67990;59.826;30.108;2023-04-24T10:25:57;100500.78;;;25.84;20.58
78675;BME280;67990;59.826;30.108;2023-04-24T10:28:25;100492.78;;;25.49;22.22
78675;BME280;67990;59.826;30.108;2023-04-24T10:30:54;100498.19;;;25.89;21.08
78675;BME280;67990;59.826;30.108;2023-04-24T10:33:22;100499.47;;;25.24;21.65
78675;BME280;67990;59.826;30.108;2023-04-24T10:35:50;100504.25;;;25.10;22.51
78675;BME280;67990;59.826;30.108;2023-04-24T10:38:22;100512.44;;;24.92;22.36
78675;BME280;67990;59.826;30.108;2023-04-24T10:40:51;100489.69;;;24.54;22.29
78675;BME280;67990;59.826;30.108;2023-04-24T10:43:36;100506.38;;;24.15;23.36
78675;BME280;67990;59.826;30.108;2023-04-24T10:46:05;100506.63;;;23.95;24.05
78675;BME280;67990;59.826;30.108;2023-04-24T10:48:32;100521.50;;;24.09;23.49
78675;BME280;67990;59.826;30.108;2023-04-24T10:51:18;100510.94;;;23.96;23.66
78675;BME280;67990;59.826;30.108;2023-04-24T10:53:51;100510.06;;;24.02;24.02
78675;BME280;67990;59.826;30.108;2023-04-24T10:56:18;100504.41;;;24.22;23.19
78675;BME280;67990;59.826;30.108;2023-04-24T10:59:07;100504.53;;;24.27;24.44
78675;BME280;67990;59.826;30.108;2023-04-24T11:01:54;100508.69;;;24.11;23.35
78675;BME280;67990;59.826;30.108;2023-04-24T11:04:32;100506.78;;;24.00;23.78
78675;BME280;67990;59.826;30.108;2023-04-24T11:07:00;100503.81;;;24.20;23.87
78675;BME280;67990;59.826;30.108;2023-04-24T11:09:31;100511.00;;;23.90;23.81
78675;BME280;67990;59.826;30.108;2023-04-24T11:12:04;100511.47;;;23.69;24.30
78675;BME280;67990;59.826;30.108;2023-04-24T11:14:59;100502.53;;;23.75;24.65
78675;BME280;67990;59.826;30.108;2023-04-24T11:17:29;100511.66;;;23.92;24.84
78675;BME280;67990;59.826;30.108;2023-04-24T11:20:01;100510.78;;;24.09;23.87
78675;BME280;67990;59.826;30.108;2023-04-24T11:22:47;100509.28;;;24.13;24.31
78675;BME280;67990;59.826;30.108;2023-04-24T11:25:16;100509.53;;;24.12;23.65
78675;BME280;67990;59.826;30.108;2023-04-24T11:28:05;100519.88;;;23.72;23.81
78675;BME280;67990;59.826;30.108;2023-04-24T11:30:33;100512.94;;;23.29;23.98
78675;BME280;67990;59.826;30.108;2023-04-24T11:33:05;100516.56;;;23.16;24.81
78675;BME280;67990;59.826;30.108;2023-04-24T11:35:35;100517.06;;;23.31;24.29
78675;BME280;67990;59.826;30.108;2023-04-24T11:38:24;100525.19;;;23.43;25.00
78675;BME280;67990;59.826;30.108;2023-04-24T11:40:53;100529.72;;;23.42;24.53
78675;BME280;67990;59.826;30.108;2023-04-24T11:43:21;100535.09;;;23.42;24.01
78675;BME280;67990;59.826;30.108;2023-04-24T11:45:49;100528.91;;;23.42;24.29
78675;BME280;67990;59.826;30.108;2023-04-24T11:51:06;100530.25;;;23.69;24.16
78675;BME280;67990;59.826;30.108;2023-04-24T11:53:53;100538.09;;;23.70;25.01
78675;BME280;67990;59.826;30.108;2023-04-24T11:56:22;100529.00;;;23.53;24.31
78675;BME280;67990;59.826;30.108;2023-04-24T11:59:09;100532.41;;;23.42;25.01
78675;BME280;67990;59.826;30.108;2023-04-24T12:01:55;100539.50;;;23.55;25.78
78675;BME280;67990;59.826;30.108;2023-04-24T12:04:22;100533.63;;;23.64;24.88
78675;BME280;67990;59.826;30.108;2023-04-24T12:07:06;100528.97;;;23.71;25.16
78675;BME280;67990;59.826;30.108;2023-04-24T12:09:41;100531.16;;;23.63;25.00
78675;BME280;67990;59.826;30.108;2023-04-24T12:12:11;100534.44;;;23.65;25.48
78675;BME280;67990;59.826;30.108;2023-04-24T12:14:48;100534.28;;;23.60;25.17
78675;BME280;67990;59.826;30.108;2023-04-24T12:17:16;100538.66;;;23.72;25.76
78675;BME280;67990;59.826;30.108;2023-04-24T12:19:47;100539.72;;;23.71;24.84
78675;BME280;67990;59.826;30.108;2023-04-24T12:22:14;100543.59;;;23.57;24.37
78675;BME280;67990;59.826;30.108;2023-04-24T12:25:02;100548.63;;;23.29;24.80
78675;BME280;67990;59.826;30.108;2023-04-24T12:27:32;100544.72;;;22.76;26.48
78675;BME280;67990;59.826;30.108;2023-04-24T12:30:17;100563.69;;;22.75;27.53
78675;BME280;67990;59.826;30.108;2023-04-24T12:33:03;100574.50;;;22.18;29.15
78675;BME280;67990;59.826;30.108;2023-04-24T12:35:31;100566.25;;;21.56;30.43
78675;BME280;67990;59.826;30.108;2023-04-24T12:38:05;100579.41;;;20.79;32.14
78675;BME280;67990;59.826;30.108;2023-04-24T12:40:33;100597.00;;;20.54;32.63
78675;BME280;67990;59.826;30.108;2023-04-24T12:43:01;100582.28;;;19.70;34.42
78675;BME280;67990;59.826;30.108;2023-04-24T12:45:29;100589.00;;;19.32;35.46
78675;BME280;67990;59.826;30.108;2023-04-24T12:47:56;100591.94;;;19.16;35.87
78675;BME280;67990;59.826;30.108;2023-04-24T12:50:23;100594.41;;;18.76;37.19
78675;BME280;67990;59.826;30.108;2023-04-24T12:52:50;100600.72;;;18.18;39.13
78675;BME280;67990;59.826;30.108;2023-04-24T12:58:05;100602.66;;;17.66;41.49
78675;BME280;67990;59.826;30.108;2023-04-24T13:00:32;100604.34;;;17.67;41.70
78675;BME280;67990;59.826;30.108;2023-04-24T13:03:17;100605.41;;;17.58;42.48
78675;BME280;67990;59.826;30.108;2023-04-24T13:05:45;100602.84;;;17.65;42.38
78675;BME280;67990;59.826;30.108;2023-04-24T13:08:12;100596.88;;;17.48;43.01
78675;BME280;67990;59.826;30.108;2023-04-24T13:10:39;100612.72;;;17.42;43.67
78675;BME280;67990;59.826;30.108;2023-04-24T13:13:08;100615.22;;;17.21;44.49
78675;BME280;67990;59.826;30.108;2023-04-24T13:15:35;100604.84;;;17.11;45.04
78675;BME280;67990;59.826;30.108;2023-04-24T13:18:03;100625.63;;;17.08;45.07
78675;BME280;67990;59.826;30.108;2023-04-24T13:20:30;100620.72;;;16.97;45.43
78675;BME280;67990;59.826;30.108;2023-04-24T13:22:57;100621.97;;;16.86;46.28
78675;BME280;67990;59.826;30.108;2023-04-24T13:25:24;100637.00;;;16.94;45.99
78675;BME280;67990;59.826;30.108;2023-04-24T13:27:52;100634.28;;;17.02;46.01
78675;BME280;67990;59.826;30.108;2023-04-24T13:30:38;100632.97;;;16.98;46.03
78675;BME280;67990;59.826;30.108;2023-04-24T13:33:23;100629.41;;;16.91;46.09
78675;BME280;67990;59.826;30.108;2023-04-24T13:35:50;100635.47;;;16.99;45.96
78675;BME280;67990;59.826;30.108;2023-04-24T13:38:17;100632.34;;;16.96;46.20
78675;BME280;67990;59.826;30.108;2023-04-24T13:40:47;100648.69;;;16.85;46.53
78675;BME280;67990;59.826;30.108;2023-04-24T13:43:14;100637.59;;;16.81;46.36
78675;BME280;67990;59.826;30.108;2023-04-24T13:45:42;100643.31;;;16.70;46.80
78675;BME280;67990;59.826;30.108;2023-04-24T13:48:09;100635.50;;;16.69;47.06
78675;BME280;67990;59.826;30.108;2023-04-24T13:50:36;100659.75;;;16.66;47.36
78675;BME280;67990;59.826;30.108;2023-04-24T13:53:22;100649.03;;;16.82;47.04
78675;BME280;67990;59.826;30.108;2023-04-24T13:56:07;100651.69;;;16.82;46.82
78675;BME280;67990;59.826;30.108;2023-04-24T14:01:58;100662.00;;;16.99;46.75
78675;BME280;67990;59.826;30.108;2023-04-24T14:04:44;100652.06;;;17.01;47.15
78675;BME280;67990;59.826;30.108;2023-04-24T14:07:13;100655.06;;;16.98;46.83
78675;BME280;67990;59.826;30.108;2023-04-24T14:09:40;100657.16;;;17.03;46.79
78675;BME280;67990;59.826;30.108;2023-04-24T14:12:07;100658.16;;;17.02;46.45
78675;BME280;67990;59.826;30.108;2023-04-24T14:14:34;100661.50;;;17.04;46.23
78675;BME280;67990;59.826;30.108;2023-04-24T14:17:03;100661.13;;;17.07;46.26
78675;BME280;67990;59.826;30.108;2023-04-24T14:19:30;100666.91;;;17.10;46.25
78675;BME280;67990;59.826;30.108;2023-04-24T14:21:57;100677.72;;;17.09;46.56
78675;BME280;67990;59.826;30.108;2023-04-24T14:24:24;100688.09;;;17.18;46.57
78675;BME280;67990;59.826;30.108;2023-04-24T14:29:55;100685.66;;;17.09;46.92
78675;BME280;67990;59.826;30.108;2023-04-24T14:32:42;100704.19;;;16.94;47.08
78675;BME280;67990;59.826;30.108;2023-04-24T14:35:09;100712.72;;;16.82;47.59
78675;BME280;67990;59.826;30.108;2023-04-24T14:37:36;100712.81;;;16.66;48.42
78675;BME280;67990;59.826;30.108;2023-04-24T14:40:25;100718.72;;;16.45;48.91
78675;BME280;67990;59.826;30.108;2023-04-24T14:42:52;100715.28;;;16.28;49.41
78675;BME280;67990;59.826;30.108;2023-04-24T14:45:37;100721.38;;;16.29;50.24
78675;BME280;67990;59.826;30.108;2023-04-24T14:48:44;100718.25;;;16.25;51.18